createdAt,value
2019-02-09T00:01:57.202Z,101843.61
2019-02-09T00:04:26.887Z,101845.75
2019-02-09T00:06:56.605Z,101843.64
2019-02-09T00:09:26.586Z,101842.34
2019-02-09T00:11:56.220Z,101847.03
2019-02-09T00:14:26.033Z,101847.43
2019-02-09T00:16:56.115Z,101841.39
2019-02-09T00:19:26.037Z,101839.27
2019-02-09T00:21:55.886Z,101844.80
2019-02-09T00:24:25.924Z,101834.58
2019-02-09T00:26:56.003Z,101838.42
2019-02-09T00:29:25.658Z,101845.70
2019-02-09T00:31:55.757Z,101846.98
2019-02-09T00:34:25.829Z,101846.56
2019-02-09T00:36:55.735Z,101841.45
2019-02-09T00:39:25.500Z,101840.58
2019-02-09T00:41:55.259Z,101845.70
2019-02-09T00:44:25.134Z,101844.41
2019-02-09T00:46:54.899Z,101838.40
2019-02-09T00:49:24.659Z,101832.45
2019-02-09T00:51:54.483Z,101812.11
2019-02-09T00:54:24.454Z,101845.70
2019-02-09T00:56:54.207Z,101845.27
2019-02-09T00:59:24.121Z,101841.45
2019-02-09T01:01:53.982Z,101838.03
2019-02-09T01:04:23.942Z,101836.31
2019-02-09T01:06:53.672Z,101834.23
2019-02-09T01:09:23.633Z,101844.86
2019-02-09T01:11:53.634Z,101833.75
2019-02-09T01:14:23.515Z,101835.00
2019-02-09T01:16:53.385Z,101835.45
2019-02-09T01:19:23.241Z,101838.87
2019-02-09T01:21:53.077Z,101840.61
2019-02-09T01:24:22.923Z,101843.17
2019-02-09T01:26:52.900Z,101844.02
2019-02-09T01:29:22.705Z,101839.72
2019-02-09T01:31:52.676Z,101833.30
2019-02-09T01:34:22.445Z,101838.73
2019-02-09T01:36:52.252Z,101831.05
2019-02-09T01:39:22.256Z,101835.33
2019-02-09T01:41:52.219Z,101832.34
2019-02-09T01:44:22.032Z,101837.48
2019-02-09T01:46:51.771Z,101838.36
2019-02-09T01:49:21.543Z,101831.06
2019-02-09T01:51:51.477Z,101826.37
2019-02-09T01:54:21.286Z,101827.63
2019-02-09T01:56:51.249Z,101828.91
2019-02-09T01:59:21.008Z,101829.02
2019-02-09T02:01:50.832Z,101830.30
2019-02-09T02:04:20.947Z,101826.83
2019-02-09T02:06:50.746Z,101820.44
2019-02-09T02:09:20.678Z,101823.88
2019-02-09T02:11:50.930Z,101818.44
2019-02-09T02:14:20.696Z,101818.44
2019-02-09T02:16:50.507Z,101823.09
2019-02-09T02:19:20.177Z,101821.44
2019-02-09T02:21:50.164Z,101821.83
2019-02-09T02:24:20.066Z,101823.55
2019-02-09T02:26:50.037Z,101827.36
2019-02-09T02:29:20.021Z,101824.84
2019-02-09T02:31:50.135Z,101822.26
2019-02-09T02:34:20.064Z,101828.23
2019-02-09T02:36:49.849Z,101819.70
2019-02-09T02:39:19.683Z,101826.10
2019-02-09T02:41:50.868Z,101816.28
2019-02-09T02:44:20.628Z,101826.45
2019-02-09T02:46:50.565Z,101827.33
2019-02-09T02:49:20.527Z,101831.17
2019-02-09T02:51:50.281Z,101830.77
2019-02-09T02:54:21.103Z,101821.85
2019-02-09T02:56:50.890Z,101823.53
2019-02-09T02:59:20.576Z,101825.67
2019-02-09T03:01:50.453Z,101820.98
2019-02-09T03:04:20.356Z,101822.28
2019-02-09T03:06:50.092Z,101830.39
2019-02-09T03:09:20.016Z,101829.55
2019-02-09T03:11:49.813Z,101834.65
2019-02-09T03:14:19.876Z,101835.50
2019-02-09T03:16:49.661Z,101833.40
2019-02-09T03:19:19.629Z,101835.11
2019-02-09T03:21:49.267Z,101839.79
2019-02-09T03:24:18.987Z,101838.52
2019-02-09T03:26:48.863Z,101847.44
2019-02-09T03:29:18.624Z,101849.59
2019-02-09T03:31:48.368Z,101846.16
2019-02-09T03:34:18.091Z,101849.98
2019-02-09T03:36:47.951Z,101851.27
2019-02-09T03:39:17.787Z,101849.16
2019-02-09T03:41:47.980Z,101852.57
2019-02-09T03:44:17.797Z,101855.11
2019-02-09T03:46:47.947Z,101855.95
2019-02-09T03:49:17.895Z,101854.23
2019-02-09T03:51:47.870Z,101861.44
2019-02-09T03:54:17.678Z,101863.15
2019-02-09T03:56:48.765Z,101862.72
2019-02-09T03:59:18.536Z,101864.00
2019-02-09T04:01:48.577Z,101865.27
2019-02-09T04:04:18.425Z,101866.09
2019-02-09T04:06:48.204Z,101862.67
2019-02-09T04:09:17.922Z,101862.23
2019-02-09T04:11:47.930Z,101860.48
2019-02-09T04:14:17.652Z,101855.41
2019-02-09T04:16:47.556Z,101857.97
2019-02-09T04:19:17.533Z,101856.72
2019-02-09T04:21:47.429Z,101853.34
2019-02-09T04:24:17.403Z,101848.63
2019-02-09T04:26:47.307Z,101844.41
2019-02-09T04:29:17.298Z,101849.08
2019-02-09T04:31:47.071Z,101849.09
2019-02-09T04:34:16.863Z,101841.91
2019-02-09T04:36:46.848Z,101841.08
2019-02-09T04:39:16.531Z,101839.81
2019-02-09T04:41:46.402Z,101841.07
2019-02-09T04:44:16.190Z,101838.95
2019-02-09T04:46:46.048Z,101847.45
2019-02-09T04:49:15.861Z,101846.62
2019-02-09T04:51:45.825Z,101845.34
2019-02-09T04:54:15.580Z,101845.30
2019-02-09T04:56:45.313Z,101853.80
2019-02-09T04:59:15.216Z,101853.80
2019-02-09T05:01:45.333Z,101863.63
2019-02-09T05:04:15.142Z,101856.84
2019-02-09T05:06:45.132Z,101856.84
2019-02-09T05:09:14.976Z,101857.69
2019-02-09T05:11:44.796Z,101861.48
2019-02-09T05:14:14.669Z,101870.42
2019-02-09T05:16:44.427Z,101860.65
2019-02-09T05:19:14.220Z,101867.47
2019-02-09T05:21:44.089Z,101872.16
2019-02-09T05:24:13.752Z,101869.16
2019-02-09T05:26:43.600Z,101871.71
2019-02-09T05:29:13.562Z,101873.40
2019-02-09T05:31:43.422Z,101878.88
2019-02-09T05:34:13.222Z,101875.38
2019-02-09T05:36:43.108Z,101870.34
2019-02-09T05:39:12.818Z,101872.08
2019-02-09T05:41:42.785Z,101873.76
2019-02-09T05:44:12.586Z,101875.45
2019-02-09T05:46:42.564Z,101884.77
2019-02-09T05:49:12.213Z,101884.71
2019-02-09T05:51:42.133Z,101881.80
2019-02-09T05:54:11.984Z,101886.99
2019-02-09T05:56:42.079Z,101887.41
2019-02-09T05:59:12.199Z,101891.26
2019-02-09T06:01:41.955Z,101890.34
2019-02-09T06:04:11.828Z,101891.27
2019-02-09T06:06:42.670Z,101888.75
2019-02-09T06:09:12.527Z,101892.98
2019-02-09T06:11:42.267Z,101887.87
2019-02-09T06:14:12.310Z,101892.14
2019-02-09T06:16:42.047Z,101887.03
2019-02-09T06:19:11.834Z,101888.73
2019-02-09T06:21:43.112Z,101892.10
2019-02-09T06:24:12.790Z,101888.26
2019-02-09T06:26:42.587Z,101888.26
2019-02-09T06:29:13.674Z,101891.25
2019-02-09T06:31:43.447Z,101895.03
2019-02-09T06:34:13.290Z,101890.33
2019-02-09T06:36:43.029Z,101889.04
2019-02-09T06:39:12.735Z,101890.27
2019-02-09T06:41:42.615Z,101890.67
2019-02-09T06:44:12.412Z,101890.65
2019-02-09T06:46:42.090Z,101887.06
2019-02-09T06:49:11.995Z,101884.53
2019-02-09T06:51:42.164Z,101884.86
2019-02-09T06:54:12.006Z,101886.11
2019-02-09T06:56:43.035Z,101890.38
2019-02-09T06:59:12.760Z,101890.43
2019-02-09T07:01:48.592Z,101890.16
2019-02-09T07:04:14.259Z,101894.18
2019-02-09T07:06:44.145Z,101901.36
2019-02-09T07:09:14.071Z,101894.13
2019-02-09T07:11:45.135Z,101900.12
2019-02-09T07:14:14.805Z,101899.27
2019-02-09T07:16:44.720Z,101897.09
2019-02-09T07:19:14.488Z,101900.46
2019-02-09T07:21:44.273Z,101901.20
2019-02-09T07:24:14.257Z,101905.85
2019-02-09T07:26:44.048Z,101896.27
2019-02-09T07:29:13.811Z,101900.77
2019-02-09T07:31:43.823Z,101900.53
2019-02-09T07:34:13.608Z,101906.58
2019-02-09T07:36:43.113Z,101901.88
2019-02-09T07:39:12.874Z,101896.58
2019-02-09T07:41:42.823Z,101899.75
2019-02-09T07:44:12.469Z,101902.66
2019-02-09T07:46:42.379Z,101897.47
2019-02-09T07:49:13.486Z,101897.19
2019-02-09T07:51:43.256Z,101900.81
2019-02-09T07:54:13.160Z,101865.91
2019-02-09T07:56:44.033Z,101888.56
2019-02-09T07:59:13.839Z,101894.06
2019-02-09T08:01:43.552Z,101886.65
2019-02-09T08:04:13.283Z,101888.99
2019-02-09T08:06:43.056Z,101890.73
2019-02-09T08:09:13.814Z,101891.41
2019-02-09T08:11:43.796Z,101896.92
2019-02-09T08:14:13.433Z,101898.45
2019-02-09T08:16:43.634Z,101897.26
2019-02-09T08:19:13.533Z,101889.27
2019-02-09T08:21:44.426Z,101900.33
2019-02-09T08:24:14.217Z,101900.12
2019-02-09T08:26:44.259Z,101897.98
2019-02-09T08:29:15.393Z,101898.09
2019-02-09T08:31:45.247Z,101898.93
2019-02-09T08:34:15.008Z,101891.16
2019-02-09T08:36:44.840Z,101892.25
2019-02-09T08:39:15.894Z,101903.34
2019-02-09T08:41:45.589Z,101899.11
2019-02-09T08:44:15.388Z,101902.52
2019-02-09T08:46:45.360Z,101898.70
2019-02-09T08:49:15.343Z,101892.11
2019-02-09T08:51:45.154Z,101898.23
2019-02-09T08:54:15.105Z,101895.70
2019-02-09T08:56:44.866Z,101892.49
2019-02-09T08:59:14.695Z,101899.04
2019-02-09T09:01:45.744Z,101889.33
2019-02-09T09:04:15.505Z,101891.91
2019-02-09T09:06:45.372Z,101895.66
2019-02-09T09:09:15.182Z,101889.67
2019-02-09T09:11:45.052Z,101886.98
2019-02-09T09:14:14.697Z,101880.59
2019-02-09T09:16:44.427Z,101879.17
2019-02-09T09:19:14.394Z,101884.30
2019-02-09T09:21:44.140Z,101884.17
2019-02-09T09:24:14.060Z,101875.19
2019-02-09T09:26:44.140Z,101874.34
2019-02-09T09:29:13.880Z,101883.06
2019-02-09T09:31:43.799Z,101883.52
2019-02-09T09:34:15.190Z,101877.70
2019-02-09T09:36:45.085Z,101876.16
2019-02-09T09:39:15.045Z,101877.59
2019-02-09T09:41:45.067Z,101865.34
2019-02-09T09:44:14.948Z,101870.81
2019-02-09T09:46:46.023Z,101857.55
2019-02-09T09:49:16.104Z,101860.68
2019-02-09T09:51:46.122Z,101849.67
2019-02-09T09:54:17.174Z,101847.67
2019-02-09T09:56:46.963Z,101849.27
2019-02-09T09:59:16.905Z,101849.78
2019-02-09T10:01:46.744Z,101845.31
2019-02-09T10:04:16.931Z,101839.22
2019-02-09T10:06:46.751Z,101830.91
2019-02-09T10:09:16.712Z,101837.17
2019-02-09T10:11:46.581Z,101822.65
2019-02-09T10:14:16.515Z,101823.43
2019-02-09T10:16:48.116Z,101817.73
2019-02-09T10:19:18.163Z,101820.98
2019-02-09T10:21:47.983Z,101820.80
2019-02-09T10:24:17.837Z,101812.48
2019-02-09T10:26:47.517Z,101817.47
2019-02-09T10:29:17.326Z,101813.77
2019-02-09T10:31:47.083Z,101811.53
2019-02-09T10:34:16.948Z,101806.92
2019-02-09T10:36:46.760Z,101816.45
2019-02-09T10:39:16.628Z,101807.52
2019-02-09T10:41:46.436Z,101806.22
2019-02-09T10:44:16.452Z,101803.14
2019-02-09T10:46:46.344Z,101806.17
2019-02-09T10:49:16.036Z,101804.08
2019-02-09T10:51:45.908Z,101802.43
2019-02-09T10:54:15.662Z,101795.53
2019-02-09T10:56:46.189Z,101795.49
2019-02-09T10:59:16.190Z,101793.25
2019-02-09T11:01:46.141Z,101791.99
2019-02-09T11:04:16.261Z,101782.27
2019-02-09T11:06:46.463Z,101780.16
2019-02-09T11:09:22.061Z,101775.19
2019-02-09T11:11:51.914Z,101774.30
2019-02-09T11:14:21.652Z,101762.49
2019-02-09T11:16:51.473Z,101760.80
2019-02-09T11:19:21.319Z,101753.80
2019-02-09T11:21:51.421Z,101756.11
2019-02-09T11:24:21.213Z,101747.27
2019-02-09T11:26:51.179Z,101751.45
2019-02-09T11:29:20.950Z,101748.89
2019-02-09T11:31:50.770Z,101749.17
2019-02-09T11:34:20.524Z,101746.40
2019-02-09T11:36:50.768Z,101752.34
2019-02-09T11:39:20.638Z,101744.50
2019-02-09T11:41:50.584Z,101742.31
2019-02-09T11:44:20.439Z,101739.78
2019-02-09T11:46:50.155Z,101738.55
2019-02-09T11:49:21.038Z,101728.95
2019-02-09T11:51:50.727Z,101724.34
2019-02-09T11:54:20.621Z,101726.38
2019-02-09T11:56:50.947Z,101718.27
2019-02-09T11:59:21.363Z,101727.69
2019-02-09T12:01:51.983Z,101721.83
2019-02-09T12:04:21.887Z,101724.86
2019-02-09T12:06:51.650Z,101724.67
2019-02-09T12:09:21.467Z,101717.77
2019-02-09T12:11:51.427Z,101712.50
2019-02-09T12:14:21.318Z,101706.28
2019-02-09T12:16:51.208Z,101716.86
2019-02-09T12:19:23.751Z,101708.55
2019-02-09T12:21:53.395Z,101701.61
2019-02-09T12:24:23.219Z,101709.86
2019-02-09T12:26:53.289Z,101706.10
2019-02-09T12:29:22.854Z,101706.55
2019-02-09T12:31:52.765Z,101706.86
2019-02-09T12:34:23.829Z,101699.19
2019-02-09T12:36:53.520Z,101706.27
2019-02-09T12:39:23.329Z,101699.72
2019-02-09T12:41:53.184Z,101699.59
2019-02-09T12:44:22.962Z,101701.48
2019-02-09T12:46:52.776Z,101700.38
2019-02-09T12:49:22.726Z,101704.91
2019-02-09T12:51:52.830Z,101704.39
2019-02-09T12:54:22.567Z,101698.45
2019-02-09T12:56:52.234Z,101692.83
2019-02-09T12:59:22.040Z,101691.41
2019-02-09T13:01:51.867Z,101680.70
2019-02-09T13:04:21.735Z,101680.63
2019-02-09T13:06:51.494Z,101683.12
2019-02-09T13:09:21.835Z,101676.06
2019-02-09T13:11:51.594Z,101682.58
2019-02-09T13:14:21.504Z,101686.69
2019-02-09T13:16:51.171Z,101679.06
2019-02-09T13:19:20.978Z,101672.47
2019-02-09T13:21:51.063Z,101678.16
2019-02-09T13:24:21.111Z,101664.15
2019-02-09T13:26:51.107Z,101662.48
2019-02-09T13:29:20.937Z,101661.29
2019-02-09T13:31:50.756Z,101653.55
2019-02-09T13:34:20.619Z,101651.69
2019-02-09T13:36:50.585Z,101649.97
2019-02-09T13:39:21.709Z,101652.59
2019-02-09T13:41:51.472Z,101645.64
2019-02-09T13:44:22.629Z,101641.48
2019-02-09T13:46:52.309Z,101650.14
2019-02-09T13:49:21.933Z,101646.90
2019-02-09T13:51:51.689Z,101651.38
2019-02-09T13:54:21.772Z,101651.27
2019-02-09T13:56:51.380Z,101646.89
2019-02-09T13:59:22.325Z,101650.49
2019-02-09T14:01:51.910Z,101644.59
2019-02-09T14:04:21.829Z,101651.33
2019-02-09T14:06:51.706Z,101648.55
2019-02-09T14:09:21.509Z,101649.32
2019-02-09T14:11:51.269Z,101644.58
2019-02-09T14:14:21.237Z,101648.42
2019-02-09T14:16:51.133Z,101647.13
2019-02-09T14:19:22.190Z,101641.05
2019-02-09T14:21:52.078Z,101636.78
2019-02-09T14:24:21.998Z,101641.66
2019-02-09T14:26:53.016Z,101638.52
2019-02-09T14:29:22.637Z,101635.38
2019-02-09T14:31:52.466Z,101644.13
2019-02-09T14:34:22.538Z,101649.33
2019-02-09T14:36:52.357Z,101652.17
2019-02-09T14:39:22.332Z,101644.70
2019-02-09T14:41:53.044Z,101646.64
2019-02-09T14:44:22.895Z,101645.56
2019-02-09T14:46:52.808Z,101645.78
2019-02-09T14:49:22.611Z,101645.59
2019-02-09T14:51:52.528Z,101650.97
2019-02-09T14:54:22.460Z,101655.12
2019-02-09T14:56:52.222Z,101649.88
2019-02-09T14:59:21.966Z,101653.61
2019-02-09T15:01:52.795Z,101658.53
2019-02-09T15:04:22.498Z,101661.61
2019-02-09T15:06:53.545Z,101651.27
2019-02-09T15:09:23.816Z,101656.77
2019-02-09T15:11:53.559Z,101650.86
2019-02-09T15:14:23.328Z,101653.16
2019-02-09T15:16:55.097Z,101649.45
2019-02-09T15:19:31.954Z,101650.26
2019-02-09T15:22:01.881Z,101653.23
2019-02-09T15:24:31.881Z,101657.24
2019-02-09T15:27:02.001Z,101658.23
2019-02-09T15:29:32.368Z,101661.19
2019-02-09T15:32:02.024Z,101654.80
2019-02-09T15:34:31.849Z,101659.11
2019-02-09T15:37:01.946Z,101662.92
2019-02-09T15:39:31.661Z,101665.88
2019-02-09T15:42:01.606Z,101665.75
2019-02-09T15:44:32.794Z,101672.22
2019-02-09T15:47:02.654Z,101676.70
2019-02-09T15:49:32.461Z,101671.98
2019-02-09T15:52:02.226Z,101681.73
2019-02-09T15:54:31.897Z,101685.95
2019-02-09T15:57:01.654Z,101692.68
2019-02-09T15:59:31.540Z,101694.92
2019-02-09T16:02:02.597Z,101702.74
2019-02-09T16:04:32.601Z,101707.63
2019-02-09T16:07:02.410Z,101711.31
2019-02-09T16:09:32.366Z,101716.98
2019-02-09T16:12:02.143Z,101717.69
2019-02-09T16:14:32.075Z,101720.88
2019-02-09T16:17:02.178Z,101728.22
2019-02-09T16:19:31.989Z,101729.33
2019-02-09T16:22:01.896Z,101728.45
2019-02-09T16:24:32.159Z,101727.22
2019-02-09T16:27:01.981Z,101731.15
2019-02-09T16:29:31.984Z,101731.39
2019-02-09T16:32:01.783Z,101736.56
2019-02-09T16:34:31.926Z,101739.98
2019-02-09T16:37:01.709Z,101743.90
2019-02-09T16:39:31.528Z,101745.39
2019-02-09T16:42:02.684Z,101746.22
2019-02-09T16:44:32.666Z,101745.30
2019-02-09T16:47:03.928Z,101746.22
2019-02-09T16:49:33.872Z,101741.58
2019-02-09T16:52:03.651Z,101743.56
2019-02-09T16:54:33.495Z,101743.31
2019-02-09T16:57:03.345Z,101745.86
2019-02-09T16:59:33.114Z,101744.23
2019-02-09T17:02:02.917Z,101742.81
2019-02-09T17:04:33.386Z,101742.14
2019-02-09T17:07:03.460Z,101745.19
2019-02-09T17:09:33.482Z,101743.50
2019-02-09T17:12:03.353Z,101738.75
2019-02-09T17:14:33.109Z,101743.50
2019-02-09T17:17:03.024Z,101743.50
2019-02-09T17:19:32.887Z,101748.80
2019-02-09T17:22:02.613Z,101746.27
2019-02-09T17:24:32.381Z,101746.01
2019-02-09T17:27:02.269Z,101750.98
2019-02-09T17:29:31.998Z,101748.38
2019-02-09T17:32:02.990Z,101740.62
2019-02-09T17:34:32.754Z,101742.90
2019-02-09T17:37:02.792Z,101737.94
2019-02-09T17:39:32.848Z,101745.37
2019-02-09T17:42:03.119Z,101746.48
2019-02-09T17:44:33.035Z,101751.08
2019-02-09T17:47:03.163Z,101745.97
2019-02-09T17:49:33.009Z,101745.66
2019-02-09T17:52:02.792Z,101741.34
2019-02-09T17:54:32.515Z,101741.56
2019-02-09T17:57:02.385Z,101746.28
2019-02-09T17:59:32.142Z,101748.97
2019-02-09T18:02:02.033Z,101757.67
2019-02-09T18:04:31.797Z,101760.75
2019-02-09T18:07:01.568Z,101754.80
2019-02-09T18:09:32.762Z,101754.40
2019-02-09T18:12:02.523Z,101757.50
2019-02-09T18:14:32.340Z,101758.06
2019-02-09T18:17:02.216Z,101761.85
2019-02-09T18:19:31.983Z,101755.86
2019-02-09T18:22:01.885Z,101766.98
2019-02-09T18:24:31.851Z,101760.31
2019-02-09T18:27:01.755Z,101761.95
2019-02-09T18:29:31.431Z,101758.53
2019-02-09T18:32:01.502Z,101757.53
2019-02-09T18:34:31.390Z,101758.11
2019-02-09T18:37:01.408Z,101755.81
2019-02-09T18:39:31.520Z,101760.77
2019-02-09T18:42:01.272Z,101760.30
2019-02-09T18:44:31.053Z,101760.23
2019-02-09T18:47:02.278Z,101758.45
2019-02-09T18:49:32.046Z,101761.94
2019-02-09T18:52:01.924Z,101764.73
2019-02-09T18:54:31.786Z,101767.73
2019-02-09T18:57:02.074Z,101770.80
2019-02-09T18:59:31.760Z,101775.36
2019-02-09T19:02:01.622Z,101781.66
2019-02-09T19:04:31.389Z,101767.36
2019-02-09T19:07:01.325Z,101779.15
2019-02-09T19:09:31.292Z,101768.70
2019-02-09T19:12:01.042Z,101762.27
2019-02-09T19:14:30.846Z,101768.88
2019-02-09T19:17:00.571Z,101763.36
2019-02-09T19:19:30.602Z,101767.17
2019-02-09T19:22:00.449Z,101765.69
2019-02-09T19:24:30.666Z,101767.59
2019-02-09T19:27:00.444Z,101767.97
2019-02-09T19:29:30.486Z,101769.50
2019-02-09T19:32:02.151Z,101768.35
2019-02-09T19:34:31.943Z,101758.08
2019-02-09T19:37:01.772Z,101757.15
2019-02-09T19:39:32.909Z,101754.64
2019-02-09T19:42:02.874Z,101760.70
2019-02-09T19:44:32.671Z,101756.05
2019-02-09T19:47:02.552Z,101756.09
2019-02-09T19:49:32.358Z,101760.86
2019-02-09T19:52:02.292Z,101758.31
2019-02-09T19:54:32.243Z,101758.57
2019-02-09T19:57:01.996Z,101765.09
2019-02-09T19:59:31.814Z,101768.23
2019-02-09T20:02:03.100Z,101769.23
2019-02-09T20:04:32.888Z,101769.19
2019-02-09T20:07:02.903Z,101768.33
2019-02-09T20:09:32.636Z,101770.41
2019-02-09T20:12:02.421Z,101766.19
2019-02-09T20:14:32.194Z,101769.13
2019-02-09T20:17:02.077Z,101775.22
2019-02-09T20:19:31.859Z,101777.48
2019-02-09T20:22:01.631Z,101772.87
2019-02-09T20:24:31.511Z,101768.31
2019-02-09T20:27:01.431Z,101764.42
2019-02-09T20:29:32.506Z,101773.00
2019-02-09T20:32:02.287Z,101770.82
2019-02-09T20:34:31.983Z,101765.19
2019-02-09T20:37:03.177Z,101761.78
2019-02-09T20:39:33.161Z,101762.23
2019-02-09T20:42:03.072Z,101761.81
2019-02-09T20:44:33.045Z,101770.52
2019-02-09T20:47:02.911Z,101766.21
2019-02-09T20:49:32.813Z,101769.63
2019-02-09T20:52:04.264Z,101766.25
2019-02-09T20:54:34.405Z,101763.69
2019-02-09T20:57:04.111Z,101760.23
2019-02-09T20:59:33.986Z,101763.30
2019-02-09T21:02:04.460Z,101768.81
2019-02-09T21:04:34.372Z,101766.72
2019-02-09T21:07:04.228Z,101764.50
2019-02-09T21:09:34.163Z,101761.09
2019-02-09T21:12:03.801Z,101755.16
2019-02-09T21:14:33.682Z,101762.02
2019-02-09T21:17:03.551Z,101755.70
2019-02-09T21:19:33.497Z,101754.80
2019-02-09T21:22:03.500Z,101760.90
2019-02-09T21:24:33.397Z,101759.63
2019-02-09T21:27:04.460Z,101751.55
2019-02-09T21:29:34.251Z,101754.92
2019-02-09T21:32:04.159Z,101760.05
2019-02-09T21:34:34.152Z,101757.06
2019-02-09T21:37:03.917Z,101756.63
2019-02-09T21:39:34.184Z,101757.13
2019-02-09T21:42:04.089Z,101758.84
2019-02-09T21:44:34.075Z,101758.45
2019-02-09T21:47:04.072Z,101753.72
2019-02-09T21:49:33.965Z,101758.84
2019-02-09T21:52:03.921Z,101757.98
2019-02-09T21:54:33.830Z,101754.53
2019-02-09T21:57:03.666Z,101755.50
2019-02-09T21:59:33.459Z,101752.09
2019-02-09T22:02:03.270Z,101750.73
2019-02-09T22:04:33.337Z,101750.81
2019-02-09T22:07:03.199Z,101752.09
2019-02-09T22:09:33.034Z,101738.82
2019-02-09T22:12:02.919Z,101742.66
2019-02-09T22:14:32.642Z,101749.45
2019-02-09T22:17:02.259Z,101742.59
2019-02-09T22:19:32.079Z,101748.60
2019-02-09T22:22:02.089Z,101741.27
2019-02-09T22:24:32.122Z,101734.41
2019-02-09T22:27:02.024Z,101733.59
2019-02-09T22:29:32.228Z,101735.68
2019-02-09T22:32:02.077Z,101737.39
2019-02-09T22:34:31.876Z,101742.12
2019-02-09T22:37:01.603Z,101736.11
2019-02-09T22:39:31.444Z,101734.36
2019-02-09T22:42:01.410Z,101731.84
2019-02-09T22:44:31.362Z,101730.25
2019-02-09T22:47:01.152Z,101733.23
2019-02-09T22:49:31.052Z,101734.20
2019-02-09T22:52:00.865Z,101735.09
2019-02-09T22:54:30.609Z,101737.27
2019-02-09T22:57:00.407Z,101737.82
2019-02-09T22:59:30.571Z,101733.73
2019-02-09T23:02:00.661Z,101740.62
2019-02-09T23:05:17.133Z,101742.39
2019-02-09T23:07:47.070Z,101742.55
2019-02-09T23:10:17.010Z,101740.91
2019-02-09T23:12:48.537Z,101744.31
2019-02-09T23:15:18.351Z,101750.31
2019-02-09T23:17:48.115Z,101744.77
2019-02-09T23:20:18.924Z,101750.73
2019-02-09T23:22:48.720Z,101754.55
2019-02-09T23:25:18.583Z,101757.13
2019-02-09T23:27:48.498Z,101763.09
2019-02-09T23:30:18.389Z,101759.75
2019-02-09T23:32:48.398Z,101758.06
2019-02-09T23:35:18.207Z,101758.48
2019-02-09T23:37:48.049Z,101757.65
2019-02-09T23:40:17.873Z,101760.19
2019-02-09T23:42:47.552Z,101756.36
2019-02-09T23:45:17.357Z,101752.95
2019-02-09T23:47:48.675Z,101757.66
2019-02-09T23:50:18.438Z,101763.17
2019-02-09T23:52:48.342Z,101754.22
2019-02-09T23:55:18.300Z,101754.66
2019-02-09T23:57:48.497Z,101760.20
